Airfield :
LOGIN :

Register | Disclaimer

   EN    FR    IT 

 










Legend :    VFR   Marginal VFR   IFR   Intensive IFR   Very Intensive IFR
Visi :
Ceiling :
>= 8 km
>= 3000ft
5 to 8 km
1000 to 3000 ft
1500m to 5 km
500 to 1000 ft
800 to 1500m
200 to 500 ft
< 800m
< 200 ft
Symbols :   Thunderstorms  Fog  Heavy snow  Heavy precipitations  Wind > 20 kt
SIGMETs :     Misc.  Thunderstorms  Icing  Turbulence  Mountain Waves  Volcanic Ashes







- Airport Elevation : 485 ft
- IATA code : QSA


LELL - Sabadell

CURRENT METAR :
  • 262230Z AUTO 27004KT 230V300 9999 NCD 10/03 Q1023

EXPIRED METARs :
  • 262200Z AUTO 27007KT 9999 NCD 10/04 Q1023
  • 262130Z AUTO 26004KT 210V300 9999 NCD 10/03 Q1023
  • 262100Z AUTO 27009KT 9999 NCD 11/03 Q1022
  • 262030Z AUTO 27009KT 9999 NCD 12/02 Q1022
  • 262000Z AUTO 27008KT 9999 NCD 12/02 Q1022

TAF AMD TAF LELL
Valid from the 26 at 15:00 until the 27 at 15:00 UTC


261531Z 2615/2715 18010KT 9999 FEW025 TX19/2713Z TN03/2706Z
BECMG 2616/2618 VRB05KT
No reported NOTAMs for that airfield.
1 SIGMET reported for the Barcelona FIR (LECB) :
 
Severe turbulence
LECB SIGMET 9 VALID 262200/270200 LEVA
LECB BARCELONA FIR/UIR SEV TURB FCST WI N4017 E00440 - N3936 E00136 - N3738 E00138 - N3819 E00339 - N3901 E00441 - N4017 E00440 FL180/270 MOV S 15KT NC=



MET'MAP, your aeronautical weather chart ! - Copyright ORBIFLY December 2007 - Disclaimer

ORBIFLY MET'MAP TEAM :

Programming & Development : Alexandra Zaïnal
Concept & Development : Baudouin d'Aumeries
Co-Development & Prog : Marc-Olivier Méhu
Technical & hardware support : Manuel Goepfert

Contact : metmap@orbifly.com




SOURCES & CREDITS :

   NOAA